Time;durP1;ratioP1;P1;durP2;ratioP2;P2;SDS_P1;SDS_P2;PMS_P1;PMS_P2;Temp;Humidity;BMP_temperature;BMP_pressure;BME280_temperature;BME280_humidity;BME280_pressure;Samples;Min_cycle;Max_cycle;Signal;HPM_P1;HPM_P2
2022/07/04 00:00:15;;;;;;;;;;;;;;;31.36;28.42;99152.91;4359038;32;34322;-86
2022/07/04 00:02:43;;;;;;;;;;;;;;;31.34;28.59;99153.03;4361334;32;34199;-88
2022/07/04 00:05:10;;;;;;;;;;;;;;;31.36;28.50;99153.78;4359927;32;34485;-87
2022/07/04 00:07:38;;;;;;;;;;;;;;;31.33;28.50;99154.03;4361320;32;34589;-86
2022/07/04 00:10:06;;;;;;;;;;;;;;;31.29;28.46;99157.81;4360834;32;34367;-88
2022/07/04 00:12:33;;;;;;;;;;;;;;;31.20;28.54;99154.00;4360979;32;34204;-86
2022/07/04 00:15:01;;;;;;;;;;;;;;;31.20;28.53;99150.47;4360772;32;34034;-88
2022/07/04 00:17:29;;;;;;;;;;;;;;;31.16;28.64;99146.31;4360978;32;33842;-90
2022/07/04 00:19:56;;;;;;;;;;;;;;;31.27;28.50;99159.78;4359267;32;34145;-88
2022/07/04 00:22:23;;;;;;;;;;;;;;;31.18;28.64;99152.44;4360805;32;34187;-87
2022/07/04 00:24:51;;;;;;;;;;;;;;;31.22;28.54;99157.44;4360818;32;34325;-89
2022/07/04 00:27:18;;;;;;;;;;;;;;;31.21;28.52;99149.50;4360785;32;33565;-88
2022/07/04 00:29:45;;;;;;;;;;;;;;;31.16;28.63;99152.50;4359381;32;35073;-90
2022/07/04 00:32:12;;;;;;;;;;;;;;;31.15;28.59;99156.16;4360598;32;34073;-87
2022/07/04 00:34:40;;;;;;;;;;;;;;;30.89;29.06;99155.34;4360845;32;34012;-88
2022/07/04 00:37:07;;;;;;;;;;;;;;;30.88;29.18;99153.66;4360222;32;34497;-87
2022/07/04 00:39:35;;;;;;;;;;;;;;;30.83;29.45;99144.22;4360091;32;34808;-88
2022/07/04 00:42:07;;;;;;;;;;;;;;;30.88;29.07;99145.63;4360820;32;34389;-87
2022/07/04 00:44:37;;;;;;;;;;;;;;;30.40;29.29;99145.38;4360561;32;34676;-87
2022/07/04 00:47:05;;;;;;;;;;;;;;;30.84;29.13;99146.81;4359760;32;32182;-87
2022/07/04 00:49:33;;;;;;;;;;;;;;;30.78;29.31;99153.44;4359950;32;35062;-87
2022/07/04 00:52:01;;;;;;;;;;;;;;;30.74;29.24;99146.59;4359432;32;34451;-88
2022/07/04 00:54:29;;;;;;;;;;;;;;;30.93;28.87;99146.13;4359300;32;34756;-89
2022/07/04 00:56:56;;;;;;;;;;;;;;;30.87;28.86;99146.56;4359081;32;33788;-86
2022/07/04 00:59:24;;;;;;;;;;;;;;;30.98;28.65;99154.69;4359209;32;35183;-86
2022/07/04 01:01:51;;;;;;;;;;;;;;;30.93;28.64;99146.13;4359465;32;34482;-86
2022/07/04 01:04:18;;;;;;;;;;;;;;;30.94;28.49;99142.50;4360521;32;34510;-86
2022/07/04 01:06:46;;;;;;;;;;;;;;;30.97;28.54;99146.78;4359791;32;33323;-86
2022/07/04 01:09:13;;;;;;;;;;;;;;;30.89;28.60;99151.84;4359051;32;35020;-87
2022/07/04 01:11:40;;;;;;;;;;;;;;;30.83;28.70;99150.44;4360180;32;34284;-89
2022/07/04 01:14:08;;;;;;;;;;;;;;;30.66;28.88;99148.06;4360132;32;34540;-86
2022/07/04 01:16:35;;;;;;;;;;;;;;;30.74;28.76;99151.09;4359813;32;33676;-88
2022/07/04 01:19:02;;;;;;;;;;;;;;;30.86;28.57;99150.22;4358798;32;33865;-88
2022/07/04 01:21:30;;;;;;;;;;;;;;;30.73;28.70;99152.03;4360109;32;33928;-87
2022/07/04 01:23:57;;;;;;;;;;;;;;;30.68;28.79;99152.34;4358924;32;34119;-87
2022/07/04 01:26:25;;;;;;;;;;;;;;;30.50;29.16;99151.81;4359733;32;33526;-87
2022/07/04 01:28:52;;;;;;;;;;;;;;;30.62;28.98;99154.59;4359983;32;35088;-87
2022/07/04 01:31:19;;;;;;;;;;;;;;;30.65;28.85;99152.56;4360167;32;33974;-87
2022/07/04 01:33:46;;;;;;;;;;;;;;;30.49;29.08;99147.41;4358619;32;35256;-88
2022/07/04 01:36:14;;;;;;;;;;;;;;;30.53;29.06;99143.59;4359756;32;33773;-89
2022/07/04 01:38:41;;;;;;;;;;;;;;;30.40;29.36;99141.88;4359974;32;35059;-87
2022/07/04 01:41:08;;;;;;;;;;;;;;;30.31;29.50;99143.38;4359797;32;35300;-87
2022/07/04 01:43:36;;;;;;;;;;;;;;;30.28;29.43;99139.06;4358330;32;34529;-90
2022/07/04 01:46:03;;;;;;;;;;;;;;;30.10;29.69;99140.28;4359992;32;34625;-90
2022/07/04 01:48:30;;;;;;;;;;;;;;;30.15;29.71;99139.97;4359774;32;33593;-88
2022/07/04 01:50:58;;;;;;;;;;;;;;;30.10;29.87;99144.78;4361951;32;34162;-87
2022/07/04 01:53:25;;;;;;;;;;;;;;;29.92;30.10;99142.38;4361494;32;34119;-87
2022/07/04 01:55:52;;;;;;;;;;;;;;;29.87;30.23;99147.19;4361948;32;33136;-87
2022/07/04 01:58:22;;;;;;;;;;;;;;;29.87;30.24;99149.03;4361885;32;35008;-87
2022/07/04 02:03:36;;;;;;;;;;;;;;;29.92;30.17;99153.09;4360597;32;35046;-87
2022/07/04 02:06:03;;;;;;;;;;;;;;;29.92;30.33;99145.06;4361329;32;33493;-86
2022/07/04 02:09:14;;;;;;;;;;;;;;;30.01;30.10;99155.16;4361783;32;34340;-87
2022/07/04 02:11:18;;;;;;;;;;;;;;;30.06;30.05;99153.00;4361585;32;35063;-87
2022/07/04 02:13:45;;;;;;;;;;;;;;;29.66;30.86;99154.81;4361597;32;34148;-88
2022/07/04 02:16:12;;;;;;;;;;;;;;;29.65;30.79;99157.59;4361879;32;34051;-87
2022/07/04 02:18:40;;;;;;;;;;;;;;;29.81;30.59;99163.63;4361724;32;34206;-87
2022/07/04 02:21:07;;;;;;;;;;;;;;;29.66;30.93;99156.63;4362099;32;35463;-87
2022/07/04 02:23:34;;;;;;;;;;;;;;;29.79;30.67;99152.22;4361538;32;34572;-89
2022/07/04 02:26:02;;;;;;;;;;;;;;;29.51;31.07;99153.13;4360286;32;33747;-88
2022/07/04 02:28:29;;;;;;;;;;;;;;;29.67;30.86;99155.69;4361614;32;34081;-87
2022/07/04 02:30:56;;;;;;;;;;;;;;;29.74;30.84;99155.19;4360243;32;35134;-87
2022/07/04 02:33:24;;;;;;;;;;;;;;;29.57;31.01;99155.41;4361871;32;34628;-86
2022/07/04 02:35:51;;;;;;;;;;;;;;;29.72;30.76;99157.09;4360295;32;34431;-88
2022/07/04 02:38:18;;;;;;;;;;;;;;;29.81;30.75;99156.50;4360307;32;34216;-90
2022/07/04 02:40:46;;;;;;;;;;;;;;;29.67;31.02;99155.69;4361260;32;34289;-89
2022/07/04 02:43:13;;;;;;;;;;;;;;;29.65;31.07;99165.63;4361373;32;34551;-87
2022/07/04 02:45:40;;;;;;;;;;;;;;;29.55;31.11;99160.84;4361503;32;34419;-89
2022/07/04 02:48:07;;;;;;;;;;;;;;;29.47;31.36;99156.94;4361525;32;34148;-87
2022/07/04 02:50:35;;;;;;;;;;;;;;;29.59;31.19;99161.53;4360867;32;34223;-87
2022/07/04 02:53:02;;;;;;;;;;;;;;;29.40;31.46;99164.53;4360204;32;34597;-87
2022/07/04 02:55:29;;;;;;;;;;;;;;;29.47;31.40;99173.84;4361303;32;34289;-87
2022/07/04 02:57:57;;;;;;;;;;;;;;;29.50;31.36;99168.28;4359995;32;35188;-87
2022/07/04 03:00:24;;;;;;;;;;;;;;;29.58;31.37;99167.81;4359146;32;34481;-89
2022/07/04 03:02:53;;;;;;;;;;;;;;;29.54;31.49;99172.47;4360312;32;35260;-87
2022/07/04 03:05:20;;;;;;;;;;;;;;;29.76;31.26;99166.62;4361238;32;33521;-88
2022/07/04 03:07:47;;;;;;;;;;;;;;;29.88;31.01;99166.75;4361626;32;34241;-89
2022/07/04 03:10:15;;;;;;;;;;;;;;;29.78;31.22;99171.88;4360533;32;35284;-88
2022/07/04 03:12:42;;;;;;;;;;;;;;;29.32;32.09;99164.13;4358899;32;35629;-88
2022/07/04 03:15:09;;;;;;;;;;;;;;;29.68;31.52;99160.06;4361039;32;33403;-87
2022/07/04 03:17:37;;;;;;;;;;;;;;;29.52;31.66;99169.06;4361334;32;35109;-87
2022/07/04 03:20:04;;;;;;;;;;;;;;;29.34;31.75;99163.09;4360777;32;34319;-88
2022/07/04 03:22:31;;;;;;;;;;;;;;;29.38;31.97;99177.09;4359872;32;33769;-86
2022/07/04 03:24:59;;;;;;;;;;;;;;;29.64;31.75;99175.44;4361402;32;34518;-89
2022/07/04 03:27:26;;;;;;;;;;;;;;;29.69;31.66;99167.12;4347587;32;34060;-88
2022/07/04 03:29:53;;;;;;;;;;;;;;;29.85;31.56;99169.63;4361257;32;34066;-87
2022/07/04 03:32:20;;;;;;;;;;;;;;;29.69;31.76;99167.97;4346331;33;34493;-87
2022/07/04 03:34:48;;;;;;;;;;;;;;;29.90;31.28;99168.38;4345995;33;34381;-88
2022/07/04 03:37:15;;;;;;;;;;;;;;;29.66;31.81;99164.66;4346422;33;34250;-86
2022/07/04 03:39:43;;;;;;;;;;;;;;;29.97;31.48;99172.38;4346195;33;34596;-88
2022/07/04 03:42:16;;;;;;;;;;;;;;;30.05;31.46;99159.34;4359633;32;33933;-88
2022/07/04 03:44:44;;;;;;;;;;;;;;;29.98;31.52;99162.53;4361446;32;33531;-89
2022/07/04 03:47:11;;;;;;;;;;;;;;;30.14;31.26;99167.69;4361462;32;33937;-88
2022/07/04 03:49:38;;;;;;;;;;;;;;;29.79;31.96;99162.91;4361044;32;35248;-87
2022/07/04 03:52:06;;;;;;;;;;;;;;;30.04;32.03;99171.00;4360846;32;35215;-87
2022/07/04 03:54:33;;;;;;;;;;;;;;;30.65;31.48;99165.06;4361165;32;33678;-87
2022/07/04 03:57:00;;;;;;;;;;;;;;;31.21;30.32;99162.87;4360880;32;34060;-88
2022/07/04 03:59:28;;;;;;;;;;;;;;;31.69;30.02;99165.66;4360704;32;34516;-87
2022/07/04 04:01:56;;;;;;;;;;;;;;;31.85;29.81;99165.34;4360872;32;34341;-87
2022/07/04 04:07:10;;;;;;;;;;;;;;;32.31;29.36;99159.19;4360888;32;34954;-87
2022/07/04 04:09:37;;;;;;;;;;;;;;;32.49;28.82;99165.00;4360741;32;35140;-87
2022/07/04 04:12:04;;;;;;;;;;;;;;;32.89;28.11;99162.75;4360985;32;34442;-87
2022/07/04 04:14:32;;;;;;;;;;;;;;;33.29;27.05;99164.94;4360895;32;33815;-88
2022/07/04 04:16:59;;;;;;;;;;;;;;;33.14;27.16;99172.38;4371756;32;35127;-88
2022/07/04 04:19:26;;;;;;;;;;;;;;;33.67;27.00;99169.87;4360895;32;35178;-88
2022/07/04 04:21:54;;;;;;;;;;;;;;;34.12;26.72;99167.03;4360682;32;34292;-88
2022/07/04 04:24:21;;;;;;;;;;;;;;;34.48;26.85;99170.28;4360748;32;33572;-87
2022/07/04 04:26:48;;;;;;;;;;;;;;;34.85;26.29;99168.81;4361033;32;34224;-88
2022/07/04 04:29:15;;;;;;;;;;;;;;;34.98;26.00;99167.72;4360593;32;34932;-89
2022/07/04 04:31:43;;;;;;;;;;;;;;;34.69;25.78;99179.19;4360689;32;34348;-88
2022/07/04 04:34:10;;;;;;;;;;;;;;;34.52;25.70;99169.91;4360711;32;33300;-90
2022/07/04 04:36:37;;;;;;;;;;;;;;;34.69;25.38;99172.97;4360738;32;33857;-87
2022/07/04 04:39:05;;;;;;;;;;;;;;;34.27;25.15;99168.41;4360434;32;34476;-89
2022/07/04 04:41:32;;;;;;;;;;;;;;;34.96;24.20;99162.44;4360666;32;34700;-88
2022/07/04 04:43:59;;;;;;;;;;;;;;;34.44;24.98;99169.69;4360739;32;34389;-90
2022/07/04 04:46:27;;;;;;;;;;;;;;;34.59;25.61;99168.38;4359327;32;34990;-87
2022/07/04 04:48:54;;;;;;;;;;;;;;;34.79;24.83;99158.56;4360419;32;34325;-89
2022/07/04 04:51:22;;;;;;;;;;;;;;;35.18;24.84;99161.44;4360496;32;34586;-87
2022/07/04 04:53:49;;;;;;;;;;;;;;;35.87;24.18;99157.03;4360517;32;33680;-89
2022/07/04 04:56:16;;;;;;;;;;;;;;;34.89;24.87;99160.44;4360405;32;34003;-88
2022/07/04 04:58:44;;;;;;;;;;;;;;;34.51;26.14;99151.16;4360826;32;34576;-87
2022/07/04 05:01:11;;;;;;;;;;;;;;;34.06;25.92;99154.13;4360359;32;35351;-86
2022/07/04 05:03:58;;;;;;;;;;;;;;;33.76;26.25;99153.00;4359346;32;32900;-90
2022/07/04 05:06:26;;;;;;;;;;;;;;;35.25;25.06;99157.19;4360046;32;35177;-87
2022/07/04 05:08:53;;;;;;;;;;;;;;;34.62;24.87;99161.84;4360470;32;34317;-88
2022/07/04 05:11:20;;;;;;;;;;;;;;;33.69;26.52;99159.84;4360684;32;34346;-87
2022/07/04 05:13:48;;;;;;;;;;;;;;;33.74;26.61;99160.31;4360379;32;33739;-87
2022/07/04 05:16:15;;;;;;;;;;;;;;;33.05;27.44;99162.41;4358923;32;34091;-88
2022/07/04 05:18:42;;;;;;;;;;;;;;;33.57;26.81;99158.19;4360504;32;34466;-90
2022/07/04 05:21:09;;;;;;;;;;;;;;;33.61;27.00;99165.88;4359790;32;34274;-91
2022/07/04 05:23:37;;;;;;;;;;;;;;;32.93;27.64;99164.19;4360233;32;33713;-88
2022/07/04 05:26:04;;;;;;;;;;;;;;;32.47;28.36;99175.88;4361793;32;34084;-87
2022/07/04 05:28:31;;;;;;;;;;;;;;;31.76;29.72;99177.63;4360604;32;34398;-85
2022/07/04 05:30:58;;;;;;;;;;;;;;;31.66;29.99;99176.59;4360692;32;34124;-89
2022/07/04 05:33:26;;;;;;;;;;;;;;;33.31;28.11;99174.59;4361941;32;33471;-87
2022/07/04 05:35:53;;;;;;;;;;;;;;;33.31;27.64;99177.25;4361389;32;33636;-88
2022/07/04 05:38:20;;;;;;;;;;;;;;;33.56;27.50;99175.28;4361651;32;34081;-90
2022/07/04 05:40:47;;;;;;;;;;;;;;;34.42;26.02;99176.16;4361830;32;34759;-88
2022/07/04 05:43:15;;;;;;;;;;;;;;;34.73;25.49;99177.94;4361858;32;34136;-88
2022/07/04 05:45:42;;;;;;;;;;;;;;;35.53;24.73;99179.00;4360288;32;33921;-88
2022/07/04 05:48:09;;;;;;;;;;;;;;;34.26;25.59;99177.47;4360632;32;33803;-88
2022/07/04 05:50:37;;;;;;;;;;;;;;;34.23;25.45;99180.44;4360365;32;34622;-88
2022/07/04 05:53:04;;;;;;;;;;;;;;;34.76;24.90;99191.13;4361879;32;33534;-89
2022/07/04 05:55:31;;;;;;;;;;;;;;;34.22;25.59;99184.13;4361350;32;34920;-86
2022/07/04 05:57:59;;;;;;;;;;;;;;;34.52;25.84;99193.28;4361722;32;34275;-89
2022/07/04 06:00:26;;;;;;;;;;;;;;;34.40;25.30;99181.69;4361826;32;35319;-89
2022/07/04 06:02:54;;;;;;;;;;;;;;;34.74;25.07;99193.13;4361569;32;33670;-88
2022/07/04 06:05:21;;;;;;;;;;;;;;;33.99;25.98;99183.38;4361175;32;34194;-85
2022/07/04 06:07:48;;;;;;;;;;;;;;;34.50;25.17;99184.47;4361969;32;34422;-87
2022/07/04 06:10:16;;;;;;;;;;;;;;;34.97;23.90;99184.87;4361982;32;34473;-87
2022/07/04 06:12:43;;;;;;;;;;;;;;;34.12;25.31;99189.41;4360298;32;33760;-87
2022/07/04 06:15:10;;;;;;;;;;;;;;;34.14;25.82;99178.53;4361335;32;34076;-85
2022/07/04 06:17:37;;;;;;;;;;;;;;;34.74;24.49;99181.47;4361229;32;34940;-87
2022/07/04 06:20:05;;;;;;;;;;;;;;;35.04;24.23;99186.03;4361386;32;34512;-86
2022/07/04 06:22:42;;;;;;;;;;;;;;;34.28;24.95;99175.50;4360642;32;33552;-88
2022/07/04 06:25:10;;;;;;;;;;;;;;;34.96;24.36;99185.84;4358116;32;34031;-86
2022/07/04 06:27:38;;;;;;;;;;;;;;;34.36;24.61;99173.03;4369454;32;34303;-90
2022/07/04 06:30:07;;;;;;;;;;;;;;;35.30;23.76;99184.56;4356432;32;34642;-87
2022/07/04 06:32:52;;;;;;;;;;;;;;;34.77;24.62;99176.69;4356158;32;33475;-86
2022/07/04 06:38:09;;;;;;;;;;;;;;;34.56;24.78;99190.19;4359136;32;34272;-87
2022/07/04 06:40:36;;;;;;;;;;;;;;;35.43;23.16;99184.34;4360119;32;35108;-86
2022/07/04 06:43:04;;;;;;;;;;;;;;;35.38;23.50;99186.59;4357400;32;33885;-87
2022/07/04 06:45:33;;;;;;;;;;;;;;;34.10;24.83;99182.47;4357684;32;33462;-87
2022/07/04 06:48:00;;;;;;;;;;;;;;;34.54;24.52;99181.38;4356858;32;34107;-88
2022/07/04 06:50:28;;;;;;;;;;;;;;;34.54;23.94;99181.38;4352133;32;34575;-87
2022/07/04 06:53:07;;;;;;;;;;;;;;;34.30;24.48;99178.94;4353653;32;32547;-88
2022/07/04 06:55:35;;;;;;;;;;;;;;;35.23;23.58;99187.97;4343135;33;34757;-89
2022/07/04 06:58:02;;;;;;;;;;;;;;;34.92;25.18;99189.78;4356585;32;34316;-88
2022/07/04 07:00:32;;;;;;;;;;;;;;;35.31;24.13;99175.53;4359438;32;34126;-90
2022/07/04 07:02:59;;;;;;;;;;;;;;;34.48;25.00;99181.03;4355875;32;34436;-87
2022/07/04 07:05:27;;;;;;;;;;;;;;;35.50;24.83;99190.06;4358146;32;33740;-87
2022/07/04 07:08:14;;;;;;;;;;;;;;;34.66;24.86;99189.38;4358557;32;34269;-88
2022/07/04 07:10:41;;;;;;;;;;;;;;;35.22;24.75;99197.03;4359335;32;34175;-87
2022/07/04 07:13:08;;;;;;;;;;;;;;;35.29;23.74;99190.97;4357338;32;34137;-86
2022/07/04 07:15:36;;;;;;;;;;;;;;;35.17;23.61;99189.38;4359910;32;34127;-87
2022/07/04 07:18:03;;;;;;;;;;;;;;;35.53;23.51;99184.38;4359842;32;34376;-87
2022/07/04 07:20:30;;;;;;;;;;;;;;;35.53;23.78;99200.56;4360832;32;35599;-87
2022/07/04 07:22:58;;;;;;;;;;;;;;;36.06;21.90;99194.81;4361391;32;32825;-87
2022/07/04 07:25:25;;;;;;;;;;;;;;;35.69;22.66;99179.31;4361194;32;34832;-87
2022/07/04 07:27:52;;;;;;;;;;;;;;;35.69;22.24;99173.94;4361246;32;34025;-88
2022/07/04 07:30:20;;;;;;;;;;;;;;;35.34;24.02;99187.84;4359833;32;35361;-87
2022/07/04 07:32:47;;;;;;;;;;;;;;;34.31;24.47;99179.78;4361023;32;33785;-86
2022/07/04 07:35:14;;;;;;;;;;;;;;;34.04;24.33;99191.03;4361042;32;34786;-87
2022/07/04 07:37:42;;;;;;;;;;;;;;;34.86;24.29;99193.91;4359998;32;34108;-87
2022/07/04 07:40:09;;;;;;;;;;;;;;;33.95;24.64;99189.09;4359311;32;34268;-84
2022/07/04 07:42:36;;;;;;;;;;;;;;;33.95;24.44;99195.34;4360777;32;34061;-88
2022/07/04 07:45:04;;;;;;;;;;;;;;;34.42;24.19;99181.56;4360773;32;35181;-88
2022/07/04 07:47:31;;;;;;;;;;;;;;;34.71;24.00;99190.69;4360647;32;33631;-87
2022/07/04 07:49:59;;;;;;;;;;;;;;;34.00;23.92;99182.38;4372088;32;34176;-88
2022/07/04 07:52:26;;;;;;;;;;;;;;;34.76;23.84;99191.13;4361056;32;33596;-89
2022/07/04 07:54:54;;;;;;;;;;;;;;;33.86;24.27;99186.19;4361220;32;34292;-90
2022/07/04 07:57:27;;;;;;;;;;;;;;;35.09;22.50;99181.97;4359733;32;33219;-89
2022/07/04 07:59:54;;;;;;;;;;;;;;;34.97;23.67;99179.50;4359588;32;34568;-88
2022/07/04 08:05:08;;;;;;;;;;;;;;;35.91;20.73;99167.38;4360986;32;34638;-92
2022/07/04 08:07:35;;;;;;;;;;;;;;;35.67;22.04;99169.66;4360954;32;33979;-88
2022/07/04 08:10:03;;;;;;;;;;;;;;;36.04;21.21;99168.00;4361034;32;33866;-87
2022/07/04 08:12:30;;;;;;;;;;;;;;;35.82;21.42;99169.09;4361011;32;33375;-87
2022/07/04 08:14:57;;;;;;;;;;;;;;;35.43;21.41;99170.00;4360671;32;34328;-86
2022/07/04 08:17:32;;;;;;;;;;;;;;;35.20;21.92;99161.31;4361001;32;34295;-92
2022/07/04 08:19:59;;;;;;;;;;;;;;;34.97;21.80;99160.63;4360892;32;35089;-87
2022/07/04 08:22:27;;;;;;;;;;;;;;;35.52;21.11;99156.56;4360894;32;33662;-87
2022/07/04 08:24:54;;;;;;;;;;;;;;;35.75;20.67;99150.91;4360882;32;35010;-86
2022/07/04 08:27:24;;;;;;;;;;;;;;;35.97;20.51;99150.62;4360813;32;34460;-92
2022/07/04 08:29:59;;;;;;;;;;;;;;;35.64;20.93;99151.06;4360274;32;34225;-87
2022/07/04 08:32:26;;;;;;;;;;;;;;;35.72;21.60;99151.19;4347100;32;33635;-91
2022/07/04 08:34:54;;;;;;;;;;;;;;;35.51;20.90;99160.28;4360716;32;35021;-93
2022/07/04 08:37:23;;;;;;;;;;;;;;;35.94;20.94;99158.16;4359612;32;34571;-88
2022/07/04 08:39:50;;;;;;;;;;;;;;;35.33;21.51;99157.34;4347671;32;35278;-90
2022/07/04 08:42:18;;;;;;;;;;;;;;;35.45;21.15;99158.09;4359297;32;33435;-89
2022/07/04 08:44:52;;;;;;;;;;;;;;;34.96;20.92;99161.59;4360830;32;34291;-90
2022/07/04 08:47:20;;;;;;;;;;;;;;;35.14;20.64;99168.09;4347649;32;33807;-89
2022/07/04 08:50:14;;;;;;;;;;;;;;;35.15;20.83;99161.69;4347875;32;33200;-95
2022/07/04 08:52:42;;;;;;;;;;;;;;;34.99;20.88;99162.22;4369707;32;33613;-91
2022/07/04 09:00:43;;;;;;;;;;;;;;;35.78;20.93;99170.37;4359140;32;35072;-91
2022/07/04 09:03:10;;;;;;;;;;;;;;;35.34;21.25;99164.44;4346829;32;33042;-94
2022/07/04 09:05:39;;;;;;;;;;;;;;;35.50;20.87;99168.50;4347226;32;32450;-94
2022/07/04 09:08:08;;;;;;;;;;;;;;;36.04;20.68;99159.06;4360497;32;33899;-92
2022/07/04 09:10:35;;;;;;;;;;;;;;;35.55;21.00;99167.09;4359212;32;34508;-95
2022/07/04 09:13:03;;;;;;;;;;;;;;;36.09;20.57;99162.16;4347090;32;32902;-93
2022/07/04 09:15:44;;;;;;;;;;;;;;;35.18;22.20;99160.56;4359614;32;33530;-91
2022/07/04 09:18:19;;;;;;;;;;;;;;;36.02;20.20;99169.13;4348636;32;35116;-90
2022/07/04 09:20:46;;;;;;;;;;;;;;;35.60;21.08;99157.72;4360293;32;34177;-89
2022/07/04 09:23:17;;;;;;;;;;;;;;;35.48;21.04;99174.00;4360164;32;33625;-87
2022/07/04 09:25:46;;;;;;;;;;;;;;;35.59;20.37;99162.25;4358869;32;34055;-88
2022/07/04 09:28:25;;;;;;;;;;;;;;;35.54;20.62;99169.94;4360325;32;33618;-86
2022/07/04 09:30:53;;;;;;;;;;;;;;;35.32;20.92;99168.28;4360835;32;34836;-90
2022/07/04 09:33:21;;;;;;;;;;;;;;;35.42;20.73;99170.97;4360094;32;34406;-89
2022/07/04 09:35:48;;;;;;;;;;;;;;;35.27;20.96;99157.91;4359437;32;33918;-88
2022/07/04 09:38:21;;;;;;;;;;;;;;;36.50;20.64;99165.56;4360326;32;34973;-91
2022/07/04 09:43:37;;;;;;;;;;;;;;;36.05;20.39;99156.19;4358872;32;33342;-90
2022/07/04 09:46:05;;;;;;;;;;;;;;;36.23;20.63;99161.72;4359385;32;34112;-91
2022/07/04 09:48:48;;;;;;;;;;;;;;;35.59;20.73;99151.47;4358830;32;34347;-90
2022/07/04 09:51:17;;;;;;;;;;;;;;;36.55;19.95;99149.75;4349561;32;34666;-90
2022/07/04 09:53:45;;;;;;;;;;;;;;;35.38;20.64;99148.00;4370755;32;32288;-90
2022/07/04 09:56:19;;;;;;;;;;;;;;;35.59;20.80;99148.78;4359871;32;33727;-96
2022/07/04 09:58:56;;;;;;;;;;;;;;;35.87;21.07;99154.31;4371830;32;35205;-95
2022/07/04 10:01:23;;;;;;;;;;;;;;;35.42;20.79;99154.81;4358780;32;33680;-94
2022/07/04 10:03:51;;;;;;;;;;;;;;;36.01;20.36;99141.28;4359026;32;33458;-87
2022/07/04 10:06:18;;;;;;;;;;;;;;;37.03;20.14;99142.50;4359557;32;34444;-91
2022/07/04 10:08:46;;;;;;;;;;;;;;;36.88;20.49;99134.84;4358385;32;33830;-91
2022/07/04 10:11:13;;;;;;;;;;;;;;;37.13;19.61;99127.09;4371725;32;34809;-95
2022/07/04 10:13:49;;;;;;;;;;;;;;;36.34;20.45;99130.19;4372437;32;33507;-92
2022/07/04 10:16:17;;;;;;;;;;;;;;;36.18;20.62;99131.63;4362204;32;35023;-90
2022/07/04 10:18:45;;;;;;;;;;;;;;;36.90;21.11;99129.28;4362091;32;34504;-92
2022/07/04 10:21:12;;;;;;;;;;;;;;;36.94;20.00;99125.31;4372305;32;34537;-90
2022/07/04 10:23:40;;;;;;;;;;;;;;;37.53;19.28;99118.59;4369214;32;33785;-92
2022/07/04 10:26:07;;;;;;;;;;;;;;;37.28;20.33;99127.41;4373367;32;35151;-93
2022/07/04 10:28:34;;;;;;;;;;;;;;;37.38;20.07;99112.81;4372386;32;34373;-92
2022/07/04 10:31:02;;;;;;;;;;;;;;;37.69;18.98;99107.91;4374092;32;34305;-94
2022/07/04 10:33:29;;;;;;;;;;;;;;;36.88;19.74;99110.53;4372701;32;33471;-93
2022/07/04 10:35:57;;;;;;;;;;;;;;;37.31;19.47;99109.03;4348510;32;33320;-94
2022/07/04 10:38:25;;;;;;;;;;;;;;;37.14;18.97;99107.16;4361572;32;34017;-92
2022/07/04 10:40:53;;;;;;;;;;;;;;;36.68;19.46;99100.81;4365446;32;34500;-93
2022/07/04 10:43:52;;;;;;;;;;;;;;;37.36;18.73;99092.38;4361939;32;33683;-91
2022/07/04 10:46:24;;;;;;;;;;;;;;;37.59;19.22;99092.78;4361476;32;34000;-89
2022/07/04 10:48:56;;;;;;;;;;;;;;;38.36;16.65;99093.94;4361732;32;34649;-92
2022/07/04 10:51:34;;;;;;;;;;;;;;;37.78;17.74;99089.91;4360318;32;32899;-91
2022/07/04 10:54:02;;;;;;;;;;;;;;;37.38;17.45;99087.63;4372678;32;34301;-91
2022/07/04 10:56:29;;;;;;;;;;;;;;;37.17;17.97;99091.50;4347885;32;792554;-90
2022/07/04 10:58:57;;;;;;;;;;;;;;;37.92;17.59;99081.28;4361239;32;33679;-92
2022/07/04 11:01:24;;;;;;;;;;;;;;;37.56;16.93;99085.81;4360200;32;34318;-91
2022/07/04 11:03:52;;;;;;;;;;;;;;;37.67;17.33;99093.72;4372878;32;34402;-90
2022/07/04 11:06:44;;;;;;;;;;;;;;;36.88;17.81;99085.38;4374000;32;34183;-92
2022/07/04 11:09:18;;;;;;;;;;;;;;;36.86;17.94;99071.13;4374420;32;34796;-90
2022/07/04 11:11:49;;;;;;;;;;;;;;;37.30;18.45;99076.75;4373700;32;34456;-91
2022/07/04 11:14:40;;;;;;;;;;;;;;;37.65;17.52;99073.22;4358549;32;34371;-90
2022/07/04 11:17:08;;;;;;;;;;;;;;;38.09;16.85;99065.16;4371803;32;34751;-90
2022/07/04 11:19:36;;;;;;;;;;;;;;;38.09;16.69;99065.16;4357083;32;35047;-90
2022/07/04 11:22:08;;;;;;;;;;;;;;;37.52;16.78;99060.09;4366197;32;34458;-91
2022/07/04 11:24:36;;;;;;;;;;;;;;;36.98;17.88;99059.19;4359892;32;34347;-89
2022/07/04 11:27:03;;;;;;;;;;;;;;;36.27;18.75;99060.56;4359955;32;34110;-90
2022/07/04 11:29:30;;;;;;;;;;;;;;;36.91;18.68;99047.25;4361443;32;34347;-94
2022/07/04 11:31:58;;;;;;;;;;;;;;;37.29;18.33;99039.91;4361708;32;33959;-91
2022/07/04 11:34:30;;;;;;;;;;;;;;;37.64;18.10;99036.34;4361124;32;33333;-91
2022/07/04 11:36:58;;;;;;;;;;;;;;;37.89;16.68;99030.16;4359507;32;34056;-90
2022/07/04 11:39:25;;;;;;;;;;;;;;;38.47;17.21;99035.94;4360595;32;36885;-89
2022/07/04 11:47:46;;;;;;;;;;;;;;;37.01;17.53;99026.44;4361595;32;32537;-91
2022/07/04 11:50:14;;;;;;;;;;;;;;;36.96;17.08;99023.34;4360577;32;34521;-90
2022/07/04 11:52:42;;;;;;;;;;;;;;;37.05;17.22;99022.41;4360380;32;34644;-90
2022/07/04 11:55:29;;;;;;;;;;;;;;;38.35;15.09;99011.88;4360453;32;33329;-90
2022/07/04 11:57:57;;;;;;;;;;;;;;;37.86;16.04;99018.78;4359199;32;35015;-90
2022/07/04 12:00:26;;;;;;;;;;;;;;;38.46;15.75;99021.56;4361304;32;34257;-89
2022/07/04 12:02:57;;;;;;;;;;;;;;;38.27;16.05;99019.06;4359955;32;34520;-90
2022/07/04 12:05:25;;;;;;;;;;;;;;;37.52;15.85;99014.12;4358877;32;34554;-94
2022/07/04 12:07:52;;;;;;;;;;;;;;;38.44;16.26;99018.16;4360386;32;33747;-95
2022/07/04 12:10:40;;;;;;;;;;;;;;;38.23;16.28;99013.13;4360717;32;34126;-90
2022/07/04 12:13:09;;;;;;;;;;;;;;;38.52;15.61;99014.62;4369365;32;34593;-88
2022/07/04 12:15:46;;;;;;;;;;;;;;;38.13;15.60;99006.97;4360240;32;33761;-90
2022/07/04 12:18:17;;;;;;;;;;;;;;;37.89;16.11;99013.09;4360748;32;34275;-91
2022/07/04 12:20:45;;;;;;;;;;;;;;;39.42;13.46;99004.91;4360707;32;35149;-89
2022/07/04 12:23:12;;;;;;;;;;;;;;;39.23;13.96;99010.63;4359853;32;34444;-89
2022/07/04 12:25:40;;;;;;;;;;;;;;;38.52;14.68;99011.94;4361236;32;33737;-89
2022/07/04 12:28:08;;;;;;;;;;;;;;;38.48;15.14;99014.12;4359872;32;32950;-92
2022/07/04 12:30:36;;;;;;;;;;;;;;;38.59;15.20;99005.69;4361520;32;34358;-93
2022/07/04 12:33:06;;;;;;;;;;;;;;;38.43;16.10;99014.59;4359016;32;34504;-90
2022/07/04 12:35:36;;;;;;;;;;;;;;;38.67;15.47;99008.44;4358066;32;33114;-91
2022/07/04 12:38:04;;;;;;;;;;;;;;;38.89;16.83;99011.59;4361661;32;33539;-91
2022/07/04 12:40:32;;;;;;;;;;;;;;;38.54;16.42;99002.63;4359895;32;33598;-96
2022/07/04 12:43:00;;;;;;;;;;;;;;;38.74;16.07;99013.19;4348363;32;33207;-92
2022/07/04 12:45:42;;;;;;;;;;;;;;;38.22;15.96;99001.41;4348022;32;34266;-92
2022/07/04 12:48:20;;;;;;;;;;;;;;;38.67;15.45;99011.13;4360307;32;34674;-91
2022/07/04 12:50:48;;;;;;;;;;;;;;;38.09;16.48;99011.00;4359692;32;34021;-88
2022/07/04 12:53:16;;;;;;;;;;;;;;;38.44;15.44;99004.63;4359330;32;34352;-91
2022/07/04 12:55:44;;;;;;;;;;;;;;;38.45;15.47;99007.19;4347639;32;32633;-91
2022/07/04 12:58:11;;;;;;;;;;;;;;;38.17;15.48;99002.94;4360651;32;33970;-91
2022/07/04 13:00:39;;;;;;;;;;;;;;;38.44;16.30;99015.44;4359242;32;35182;-91
2022/07/04 13:03:06;;;;;;;;;;;;;;;38.48;16.24;99008.69;4361060;32;34384;-96
2022/07/04 13:05:35;;;;;;;;;;;;;;;38.42;15.84;99004.78;4359613;32;34327;-93
2022/07/04 13:08:04;;;;;;;;;;;;;;;38.77;16.79;98993.91;4359815;32;34212;-91
2022/07/04 13:10:32;;;;;;;;;;;;;;;38.20;17.19;99002.63;4359475;32;34520;-94
2022/07/04 13:13:00;;;;;;;;;;;;;;;38.50;15.63;99008.56;4359506;32;34655;-92
2022/07/04 13:15:27;;;;;;;;;;;;;;;38.52;16.30;98998.38;4347102;32;33729;-87
2022/07/04 13:17:55;;;;;;;;;;;;;;;38.70;15.27;98999.97;4360468;32;34460;-93
2022/07/04 13:20:22;;;;;;;;;;;;;;;38.44;14.63;99002.75;4359413;32;35346;-90